<?xml version="1.0" encoding="UTF-8" standalone="no" ?>
<gpx xmlns="http://www.topografix.com/GPX/1/1" xmlns:xsi="http://www.w3.org/2001/XMLSchema-instance" xsi:schemaLocation="http://www.topografix.com/GPX/1/1 http://www.topografix.com/GPX/1/1/gpx.xsd" version="1.1" creator="VisuGPX - https://www.visugpx.com">
  <metadata>
    <name>Fontainebelleau_2023_40_km-11034335</name>
  </metadata>
  <trk>
    <name><![CDATA[Fontainebelleau_2023_40_km-11034335]]></name>
    <trkseg>
      <trkpt lat="48.40445" lon="2.68339">
        <ele>82</ele>
        <time>2023-02-10T10:11:01Z</time>
      </trkpt>
      <trkpt lat="48.40533" lon="2.67759">
        <ele>86</ele>
        <time>2023-02-10T10:12:33Z</time>
      </trkpt>
      <trkpt lat="48.40549" lon="2.67654">
        <ele>85</ele>
        <time>2023-02-10T10:12:50Z</time>
      </trkpt>
      <trkpt lat="48.4059" lon="2.67151">
        <ele>94</ele>
        <time>2023-02-10T10:14:09Z</time>
      </trkpt>
      <trkpt lat="48.40628" lon="2.66841">
        <ele>105</ele>
        <time>2023-02-10T10:14:57Z</time>
      </trkpt>
      <trkpt lat="48.40482" lon="2.66797">
        <ele>95</ele>
        <time>2023-02-10T10:15:32Z</time>
      </trkpt>
      <trkpt lat="48.40274" lon="2.66764">
        <ele>90</ele>
        <time>2023-02-10T10:16:21Z</time>
      </trkpt>
      <trkpt lat="48.40047" lon="2.66737">
        <ele>88</ele>
        <time>2023-02-10T10:17:14Z</time>
      </trkpt>
      <trkpt lat="48.40039" lon="2.66697">
        <ele>90</ele>
        <time>2023-02-10T10:17:21Z</time>
      </trkpt>
      <trkpt lat="48.40049" lon="2.664">
        <ele>95</ele>
        <time>2023-02-10T10:18:07Z</time>
      </trkpt>
      <trkpt lat="48.40058" lon="2.66236">
        <ele>97</ele>
        <time>2023-02-10T10:18:32Z</time>
      </trkpt>
      <trkpt lat="48.40078" lon="2.66119">
        <ele>97</ele>
        <time>2023-02-10T10:18:51Z</time>
      </trkpt>
      <trkpt lat="48.40062" lon="2.66109">
        <ele>98</ele>
        <time>2023-02-10T10:18:55Z</time>
      </trkpt>
      <trkpt lat="48.39995" lon="2.66115">
        <ele>105</ele>
        <time>2023-02-10T10:19:11Z</time>
      </trkpt>
      <trkpt lat="48.3997" lon="2.66122">
        <ele>107</ele>
        <time>2023-02-10T10:19:17Z</time>
      </trkpt>
      <trkpt lat="48.39933" lon="2.66152">
        <ele>110</ele>
        <time>2023-02-10T10:19:26Z</time>
      </trkpt>
      <trkpt lat="48.39855" lon="2.66153">
        <ele>114</ele>
        <time>2023-02-10T10:19:45Z</time>
      </trkpt>
      <trkpt lat="48.3978" lon="2.66148">
        <ele>107</ele>
        <time>2023-02-10T10:20:02Z</time>
      </trkpt>
      <trkpt lat="48.39723" lon="2.66128">
        <ele>101</ele>
        <time>2023-02-10T10:20:16Z</time>
      </trkpt>
      <trkpt lat="48.39688" lon="2.66082">
        <ele>97</ele>
        <time>2023-02-10T10:20:27Z</time>
      </trkpt>
      <trkpt lat="48.39659" lon="2.66001">
        <ele>94</ele>
        <time>2023-02-10T10:20:41Z</time>
      </trkpt>
      <trkpt lat="48.39636" lon="2.65925">
        <ele>93</ele>
        <time>2023-02-10T10:20:54Z</time>
      </trkpt>
      <trkpt lat="48.39678" lon="2.65729">
        <ele>94</ele>
        <time>2023-02-10T10:21:26Z</time>
      </trkpt>
      <trkpt lat="48.39716" lon="2.65507">
        <ele>91</ele>
        <time>2023-02-10T10:22:01Z</time>
      </trkpt>
      <trkpt lat="48.39738" lon="2.65318">
        <ele>94</ele>
        <time>2023-02-10T10:22:31Z</time>
      </trkpt>
      <trkpt lat="48.39769" lon="2.64995">
        <ele>97</ele>
        <time>2023-02-10T10:23:22Z</time>
      </trkpt>
      <trkpt lat="48.39794" lon="2.64744">
        <ele>101</ele>
        <time>2023-02-10T10:24:01Z</time>
      </trkpt>
      <trkpt lat="48.39779" lon="2.64649">
        <ele>100</ele>
        <time>2023-02-10T10:24:16Z</time>
      </trkpt>
      <trkpt lat="48.39774" lon="2.64532">
        <ele>100</ele>
        <time>2023-02-10T10:24:34Z</time>
      </trkpt>
      <trkpt lat="48.39772" lon="2.64302">
        <ele>100</ele>
        <time>2023-02-10T10:25:10Z</time>
      </trkpt>
      <trkpt lat="48.39779" lon="2.64283">
        <ele>100</ele>
        <time>2023-02-10T10:25:14Z</time>
      </trkpt>
      <trkpt lat="48.39814" lon="2.63956">
        <ele>104</ele>
        <time>2023-02-10T10:26:05Z</time>
      </trkpt>
      <trkpt lat="48.39836" lon="2.63712">
        <ele>114</ele>
        <time>2023-02-10T10:26:43Z</time>
      </trkpt>
      <trkpt lat="48.39814" lon="2.63651">
        <ele>119</ele>
        <time>2023-02-10T10:26:54Z</time>
      </trkpt>
      <trkpt lat="48.39779" lon="2.63604">
        <ele>124</ele>
        <time>2023-02-10T10:27:05Z</time>
      </trkpt>
      <trkpt lat="48.39768" lon="2.63576">
        <ele>126</ele>
        <time>2023-02-10T10:27:10Z</time>
      </trkpt>
      <trkpt lat="48.39737" lon="2.63591">
        <ele>127</ele>
        <time>2023-02-10T10:27:17Z</time>
      </trkpt>
      <trkpt lat="48.39712" lon="2.63599">
        <ele>128</ele>
        <time>2023-02-10T10:27:23Z</time>
      </trkpt>
      <trkpt lat="48.3969" lon="2.63593">
        <ele>131</ele>
        <time>2023-02-10T10:27:29Z</time>
      </trkpt>
      <trkpt lat="48.39678" lon="2.63548">
        <ele>133</ele>
        <time>2023-02-10T10:27:36Z</time>
      </trkpt>
      <trkpt lat="48.39657" lon="2.63533">
        <ele>135</ele>
        <time>2023-02-10T10:27:42Z</time>
      </trkpt>
      <trkpt lat="48.39633" lon="2.63529">
        <ele>136</ele>
        <time>2023-02-10T10:27:47Z</time>
      </trkpt>
      <trkpt lat="48.39611" lon="2.63507">
        <ele>137</ele>
        <time>2023-02-10T10:27:53Z</time>
      </trkpt>
      <trkpt lat="48.39605" lon="2.63485">
        <ele>137</ele>
        <time>2023-02-10T10:27:57Z</time>
      </trkpt>
      <trkpt lat="48.39571" lon="2.635">
        <ele>138</ele>
        <time>2023-02-10T10:28:05Z</time>
      </trkpt>
      <trkpt lat="48.39522" lon="2.63522">
        <ele>138</ele>
        <time>2023-02-10T10:28:17Z</time>
      </trkpt>
      <trkpt lat="48.39434" lon="2.63138">
        <ele>134</ele>
        <time>2023-02-10T10:29:20Z</time>
      </trkpt>
      <trkpt lat="48.39381" lon="2.63133">
        <ele>134</ele>
        <time>2023-02-10T10:29:33Z</time>
      </trkpt>
      <trkpt lat="48.39337" lon="2.63153">
        <ele>135</ele>
        <time>2023-02-10T10:29:43Z</time>
      </trkpt>
      <trkpt lat="48.39323" lon="2.63338">
        <ele>131</ele>
        <time>2023-02-10T10:30:12Z</time>
      </trkpt>
      <trkpt lat="48.39317" lon="2.63429">
        <ele>129</ele>
        <time>2023-02-10T10:30:26Z</time>
      </trkpt>
      <trkpt lat="48.39293" lon="2.63531">
        <ele>127</ele>
        <time>2023-02-10T10:30:43Z</time>
      </trkpt>
      <trkpt lat="48.39314" lon="2.63693">
        <ele>118</ele>
        <time>2023-02-10T10:31:09Z</time>
      </trkpt>
      <trkpt lat="48.39296" lon="2.63735">
        <ele>117</ele>
        <time>2023-02-10T10:31:17Z</time>
      </trkpt>
      <trkpt lat="48.39264" lon="2.63785">
        <ele>115</ele>
        <time>2023-02-10T10:31:27Z</time>
      </trkpt>
      <trkpt lat="48.39266" lon="2.63873">
        <ele>112</ele>
        <time>2023-02-10T10:31:41Z</time>
      </trkpt>
      <trkpt lat="48.39267" lon="2.64169">
        <ele>97</ele>
        <time>2023-02-10T10:32:27Z</time>
      </trkpt>
      <trkpt lat="48.39269" lon="2.64223">
        <ele>97</ele>
        <time>2023-02-10T10:32:35Z</time>
      </trkpt>
      <trkpt lat="48.39203" lon="2.64705">
        <ele>89</ele>
        <time>2023-02-10T10:33:52Z</time>
      </trkpt>
      <trkpt lat="48.3916" lon="2.65063">
        <ele>87</ele>
        <time>2023-02-10T10:34:48Z</time>
      </trkpt>
      <trkpt lat="48.39066" lon="2.65047">
        <ele>98</ele>
        <time>2023-02-10T10:35:10Z</time>
      </trkpt>
      <trkpt lat="48.39041" lon="2.65043">
        <ele>101</ele>
        <time>2023-02-10T10:35:16Z</time>
      </trkpt>
      <trkpt lat="48.39023" lon="2.64963">
        <ele>103</ele>
        <time>2023-02-10T10:35:29Z</time>
      </trkpt>
      <trkpt lat="48.39008" lon="2.64943">
        <ele>104</ele>
        <time>2023-02-10T10:35:34Z</time>
      </trkpt>
      <trkpt lat="48.38987" lon="2.6494">
        <ele>105</ele>
        <time>2023-02-10T10:35:39Z</time>
      </trkpt>
      <trkpt lat="48.38869" lon="2.64906">
        <ele>101</ele>
        <time>2023-02-10T10:36:07Z</time>
      </trkpt>
      <trkpt lat="48.38721" lon="2.65775">
        <ele>97</ele>
        <time>2023-02-10T10:38:26Z</time>
      </trkpt>
      <trkpt lat="48.38562" lon="2.65313">
        <ele>125</ele>
        <time>2023-02-10T10:39:47Z</time>
      </trkpt>
      <trkpt lat="48.38515" lon="2.65174">
        <ele>127</ele>
        <time>2023-02-10T10:40:11Z</time>
      </trkpt>
      <trkpt lat="48.38507" lon="2.64982">
        <ele>126</ele>
        <time>2023-02-10T10:40:41Z</time>
      </trkpt>
      <trkpt lat="48.38554" lon="2.64864">
        <ele>113</ele>
        <time>2023-02-10T10:41:02Z</time>
      </trkpt>
      <trkpt lat="48.38701" lon="2.65036">
        <ele>102</ele>
        <time>2023-02-10T10:41:45Z</time>
      </trkpt>
      <trkpt lat="48.3865" lon="2.64572">
        <ele>104</ele>
        <time>2023-02-10T10:42:58Z</time>
      </trkpt>
      <trkpt lat="48.38856" lon="2.6467">
        <ele>104</ele>
        <time>2023-02-10T10:43:49Z</time>
      </trkpt>
      <trkpt lat="48.38795" lon="2.64222">
        <ele>126</ele>
        <time>2023-02-10T10:45:00Z</time>
      </trkpt>
      <trkpt lat="48.38858" lon="2.64083">
        <ele>128</ele>
        <time>2023-02-10T10:45:26Z</time>
      </trkpt>
      <trkpt lat="48.38966" lon="2.64219">
        <ele>116</ele>
        <time>2023-02-10T10:45:59Z</time>
      </trkpt>
      <trkpt lat="48.38896" lon="2.6375">
        <ele>132</ele>
        <time>2023-02-10T10:47:13Z</time>
      </trkpt>
      <trkpt lat="48.38819" lon="2.63739">
        <ele>130</ele>
        <time>2023-02-10T10:47:31Z</time>
      </trkpt>
      <trkpt lat="48.38578" lon="2.637">
        <ele>132</ele>
        <time>2023-02-10T10:48:28Z</time>
      </trkpt>
      <trkpt lat="48.38544" lon="2.63096">
        <ele>137</ele>
        <time>2023-02-10T10:50:02Z</time>
      </trkpt>
      <trkpt lat="48.38531" lon="2.63091">
        <ele>137</ele>
        <time>2023-02-10T10:50:05Z</time>
      </trkpt>
      <trkpt lat="48.38519" lon="2.63072">
        <ele>137</ele>
        <time>2023-02-10T10:50:09Z</time>
      </trkpt>
      <trkpt lat="48.38522" lon="2.63047">
        <ele>138</ele>
        <time>2023-02-10T10:50:13Z</time>
      </trkpt>
      <trkpt lat="48.38535" lon="2.63032">
        <ele>138</ele>
        <time>2023-02-10T10:50:17Z</time>
      </trkpt>
      <trkpt lat="48.38434" lon="2.62737">
        <ele>140</ele>
        <time>2023-02-10T10:51:08Z</time>
      </trkpt>
      <trkpt lat="48.38153" lon="2.61889">
        <ele>130</ele>
        <time>2023-02-10T10:53:35Z</time>
      </trkpt>
      <trkpt lat="48.38138" lon="2.61094">
        <ele>133</ele>
        <time>2023-02-10T10:55:39Z</time>
      </trkpt>
      <trkpt lat="48.37532" lon="2.6037">
        <ele>130</ele>
        <time>2023-02-10T10:58:39Z</time>
      </trkpt>
      <trkpt lat="48.37532" lon="2.59468">
        <ele>135</ele>
        <time>2023-02-10T11:00:59Z</time>
      </trkpt>
      <trkpt lat="48.38" lon="2.59093">
        <ele>124</ele>
        <time>2023-02-10T11:03:03Z</time>
      </trkpt>
      <trkpt lat="48.37991" lon="2.59592">
        <ele>127</ele>
        <time>2023-02-10T11:04:21Z</time>
      </trkpt>
      <trkpt lat="48.38025" lon="2.59618">
        <ele>127</ele>
        <time>2023-02-10T11:04:29Z</time>
      </trkpt>
      <trkpt lat="48.38068" lon="2.59623">
        <ele>127</ele>
        <time>2023-02-10T11:04:39Z</time>
      </trkpt>
      <trkpt lat="48.38265" lon="2.59352">
        <ele>130</ele>
        <time>2023-02-10T11:05:42Z</time>
      </trkpt>
      <trkpt lat="48.38323" lon="2.59275">
        <ele>129</ele>
        <time>2023-02-10T11:06:00Z</time>
      </trkpt>
      <trkpt lat="48.38365" lon="2.5922">
        <ele>127</ele>
        <time>2023-02-10T11:06:13Z</time>
      </trkpt>
      <trkpt lat="48.38389" lon="2.59175">
        <ele>125</ele>
        <time>2023-02-10T11:06:22Z</time>
      </trkpt>
      <trkpt lat="48.38452" lon="2.59141">
        <ele>121</ele>
        <time>2023-02-10T11:06:37Z</time>
      </trkpt>
      <trkpt lat="48.38465" lon="2.59093">
        <ele>118</ele>
        <time>2023-02-10T11:06:45Z</time>
      </trkpt>
      <trkpt lat="48.38473" lon="2.58987">
        <ele>111</ele>
        <time>2023-02-10T11:07:02Z</time>
      </trkpt>
      <trkpt lat="48.38433" lon="2.58884">
        <ele>108</ele>
        <time>2023-02-10T11:07:21Z</time>
      </trkpt>
      <trkpt lat="48.38355" lon="2.58765">
        <ele>103</ele>
        <time>2023-02-10T11:07:46Z</time>
      </trkpt>
      <trkpt lat="48.38399" lon="2.58785">
        <ele>103</ele>
        <time>2023-02-10T11:07:57Z</time>
      </trkpt>
      <trkpt lat="48.38434" lon="2.58782">
        <ele>102</ele>
        <time>2023-02-10T11:08:05Z</time>
      </trkpt>
      <trkpt lat="48.38487" lon="2.58808">
        <ele>104</ele>
        <time>2023-02-10T11:08:18Z</time>
      </trkpt>
      <trkpt lat="48.38673" lon="2.59234">
        <ele>118</ele>
        <time>2023-02-10T11:09:37Z</time>
      </trkpt>
      <trkpt lat="48.3864" lon="2.59261">
        <ele>120</ele>
        <time>2023-02-10T11:09:46Z</time>
      </trkpt>
      <trkpt lat="48.38622" lon="2.59295">
        <ele>121</ele>
        <time>2023-02-10T11:09:53Z</time>
      </trkpt>
      <trkpt lat="48.38657" lon="2.59403">
        <ele>122</ele>
        <time>2023-02-10T11:10:12Z</time>
      </trkpt>
      <trkpt lat="48.38669" lon="2.59476">
        <ele>124</ele>
        <time>2023-02-10T11:10:23Z</time>
      </trkpt>
      <trkpt lat="48.38662" lon="2.59554">
        <ele>126</ele>
        <time>2023-02-10T11:10:35Z</time>
      </trkpt>
      <trkpt lat="48.38645" lon="2.59775">
        <ele>128</ele>
        <time>2023-02-10T11:11:10Z</time>
      </trkpt>
      <trkpt lat="48.38634" lon="2.59933">
        <ele>126</ele>
        <time>2023-02-10T11:11:35Z</time>
      </trkpt>
      <trkpt lat="48.38687" lon="2.59894">
        <ele>125</ele>
        <time>2023-02-10T11:11:48Z</time>
      </trkpt>
      <trkpt lat="48.3873" lon="2.59908">
        <ele>125</ele>
        <time>2023-02-10T11:11:59Z</time>
      </trkpt>
      <trkpt lat="48.38756" lon="2.59895">
        <ele>126</ele>
        <time>2023-02-10T11:12:05Z</time>
      </trkpt>
      <trkpt lat="48.3878" lon="2.59857">
        <ele>126</ele>
        <time>2023-02-10T11:12:13Z</time>
      </trkpt>
      <trkpt lat="48.38796" lon="2.5983">
        <ele>126</ele>
        <time>2023-02-10T11:12:19Z</time>
      </trkpt>
      <trkpt lat="48.38808" lon="2.59803">
        <ele>125</ele>
        <time>2023-02-10T11:12:24Z</time>
      </trkpt>
      <trkpt lat="48.38849" lon="2.59803">
        <ele>126</ele>
        <time>2023-02-10T11:12:33Z</time>
      </trkpt>
      <trkpt lat="48.38877" lon="2.59784">
        <ele>125</ele>
        <time>2023-02-10T11:12:41Z</time>
      </trkpt>
      <trkpt lat="48.38905" lon="2.59786">
        <ele>125</ele>
        <time>2023-02-10T11:12:47Z</time>
      </trkpt>
      <trkpt lat="48.39294" lon="2.59859">
        <ele>112</ele>
        <time>2023-02-10T11:14:19Z</time>
      </trkpt>
      <trkpt lat="48.3949" lon="2.59975">
        <ele>91</ele>
        <time>2023-02-10T11:15:08Z</time>
      </trkpt>
      <trkpt lat="48.39598" lon="2.59291">
        <ele>88</ele>
        <time>2023-02-10T11:16:57Z</time>
      </trkpt>
      <trkpt lat="48.3964" lon="2.58866">
        <ele>87</ele>
        <time>2023-02-10T11:18:04Z</time>
      </trkpt>
      <trkpt lat="48.3973" lon="2.58846">
        <ele>94</ele>
        <time>2023-02-10T11:18:25Z</time>
      </trkpt>
      <trkpt lat="48.39772" lon="2.58874">
        <ele>98</ele>
        <time>2023-02-10T11:18:36Z</time>
      </trkpt>
      <trkpt lat="48.39819" lon="2.5889">
        <ele>103</ele>
        <time>2023-02-10T11:18:47Z</time>
      </trkpt>
      <trkpt lat="48.39839" lon="2.58954">
        <ele>107</ele>
        <time>2023-02-10T11:18:58Z</time>
      </trkpt>
      <trkpt lat="48.39844" lon="2.59003">
        <ele>110</ele>
        <time>2023-02-10T11:19:05Z</time>
      </trkpt>
      <trkpt lat="48.39896" lon="2.58983">
        <ele>114</ele>
        <time>2023-02-10T11:19:18Z</time>
      </trkpt>
      <trkpt lat="48.39935" lon="2.5907">
        <ele>114</ele>
        <time>2023-02-10T11:19:34Z</time>
      </trkpt>
      <trkpt lat="48.3992" lon="2.59141">
        <ele>119</ele>
        <time>2023-02-10T11:19:46Z</time>
      </trkpt>
      <trkpt lat="48.39942" lon="2.59285">
        <ele>121</ele>
        <time>2023-02-10T11:20:09Z</time>
      </trkpt>
      <trkpt lat="48.39927" lon="2.59327">
        <ele>122</ele>
        <time>2023-02-10T11:20:16Z</time>
      </trkpt>
      <trkpt lat="48.39933" lon="2.59441">
        <ele>121</ele>
        <time>2023-02-10T11:20:34Z</time>
      </trkpt>
      <trkpt lat="48.39924" lon="2.59455">
        <ele>120</ele>
        <time>2023-02-10T11:20:37Z</time>
      </trkpt>
      <trkpt lat="48.39888" lon="2.59461">
        <ele>120</ele>
        <time>2023-02-10T11:20:45Z</time>
      </trkpt>
      <trkpt lat="48.39884" lon="2.59595">
        <ele>118</ele>
        <time>2023-02-10T11:21:06Z</time>
      </trkpt>
      <trkpt lat="48.39893" lon="2.59757">
        <ele>119</ele>
        <time>2023-02-10T11:21:31Z</time>
      </trkpt>
      <trkpt lat="48.39909" lon="2.5985">
        <ele>120</ele>
        <time>2023-02-10T11:21:46Z</time>
      </trkpt>
      <trkpt lat="48.3983" lon="2.60009">
        <ele>119</ele>
        <time>2023-02-10T11:22:17Z</time>
      </trkpt>
      <trkpt lat="48.39787" lon="2.6023">
        <ele>118</ele>
        <time>2023-02-10T11:22:53Z</time>
      </trkpt>
      <trkpt lat="48.39863" lon="2.60405">
        <ele>121</ele>
        <time>2023-02-10T11:23:25Z</time>
      </trkpt>
      <trkpt lat="48.39896" lon="2.60403">
        <ele>121</ele>
        <time>2023-02-10T11:23:33Z</time>
      </trkpt>
      <trkpt lat="48.39976" lon="2.6046">
        <ele>121</ele>
        <time>2023-02-10T11:23:53Z</time>
      </trkpt>
      <trkpt lat="48.39977" lon="2.60436">
        <ele>121</ele>
        <time>2023-02-10T11:23:57Z</time>
      </trkpt>
      <trkpt lat="48.40006" lon="2.60307">
        <ele>123</ele>
        <time>2023-02-10T11:24:18Z</time>
      </trkpt>
      <trkpt lat="48.40011" lon="2.60287">
        <ele>124</ele>
        <time>2023-02-10T11:24:22Z</time>
      </trkpt>
      <trkpt lat="48.40042" lon="2.60211">
        <ele>128</ele>
        <time>2023-02-10T11:24:35Z</time>
      </trkpt>
      <trkpt lat="48.40143" lon="2.59842">
        <ele>130</ele>
        <time>2023-02-10T11:25:37Z</time>
      </trkpt>
      <trkpt lat="48.40185" lon="2.59805">
        <ele>128</ele>
        <time>2023-02-10T11:25:49Z</time>
      </trkpt>
      <trkpt lat="48.40268" lon="2.59743">
        <ele>123</ele>
        <time>2023-02-10T11:26:10Z</time>
      </trkpt>
      <trkpt lat="48.40277" lon="2.59451">
        <ele>112</ele>
        <time>2023-02-10T11:26:56Z</time>
      </trkpt>
      <trkpt lat="48.40286" lon="2.59384">
        <ele>109</ele>
        <time>2023-02-10T11:27:06Z</time>
      </trkpt>
      <trkpt lat="48.40235" lon="2.58778">
        <ele>85</ele>
        <time>2023-02-10T11:28:41Z</time>
      </trkpt>
      <trkpt lat="48.40254" lon="2.58533">
        <ele>78</ele>
        <time>2023-02-10T11:29:19Z</time>
      </trkpt>
      <trkpt lat="48.40246" lon="2.5848">
        <ele>79</ele>
        <time>2023-02-10T11:29:28Z</time>
      </trkpt>
      <trkpt lat="48.40257" lon="2.58409">
        <ele>79</ele>
        <time>2023-02-10T11:29:39Z</time>
      </trkpt>
      <trkpt lat="48.40339" lon="2.58461">
        <ele>79</ele>
        <time>2023-02-10T11:30:00Z</time>
      </trkpt>
      <trkpt lat="48.40454" lon="2.58533">
        <ele>80</ele>
        <time>2023-02-10T11:30:29Z</time>
      </trkpt>
      <trkpt lat="48.40484" lon="2.58531">
        <ele>80</ele>
        <time>2023-02-10T11:30:36Z</time>
      </trkpt>
      <trkpt lat="48.4053" lon="2.58557">
        <ele>81</ele>
        <time>2023-02-10T11:30:47Z</time>
      </trkpt>
      <trkpt lat="48.4051" lon="2.58628">
        <ele>83</ele>
        <time>2023-02-10T11:30:59Z</time>
      </trkpt>
      <trkpt lat="48.40517" lon="2.58712">
        <ele>87</ele>
        <time>2023-02-10T11:31:12Z</time>
      </trkpt>
      <trkpt lat="48.40506" lon="2.5877">
        <ele>89</ele>
        <time>2023-02-10T11:31:22Z</time>
      </trkpt>
      <trkpt lat="48.40485" lon="2.58831">
        <ele>92</ele>
        <time>2023-02-10T11:31:32Z</time>
      </trkpt>
      <trkpt lat="48.40492" lon="2.58876">
        <ele>94</ele>
        <time>2023-02-10T11:31:40Z</time>
      </trkpt>
      <trkpt lat="48.40483" lon="2.58931">
        <ele>95</ele>
        <time>2023-02-10T11:31:48Z</time>
      </trkpt>
      <trkpt lat="48.40524" lon="2.58953">
        <ele>98</ele>
        <time>2023-02-10T11:31:59Z</time>
      </trkpt>
      <trkpt lat="48.40554" lon="2.59006">
        <ele>102</ele>
        <time>2023-02-10T11:32:09Z</time>
      </trkpt>
      <trkpt lat="48.40596" lon="2.59003">
        <ele>108</ele>
        <time>2023-02-10T11:32:19Z</time>
      </trkpt>
      <trkpt lat="48.40625" lon="2.59029">
        <ele>113</ele>
        <time>2023-02-10T11:32:27Z</time>
      </trkpt>
      <trkpt lat="48.40629" lon="2.59088">
        <ele>114</ele>
        <time>2023-02-10T11:32:36Z</time>
      </trkpt>
      <trkpt lat="48.40614" lon="2.59167">
        <ele>117</ele>
        <time>2023-02-10T11:32:49Z</time>
      </trkpt>
      <trkpt lat="48.40637" lon="2.59199">
        <ele>120</ele>
        <time>2023-02-10T11:32:56Z</time>
      </trkpt>
      <trkpt lat="48.40656" lon="2.59199">
        <ele>121</ele>
        <time>2023-02-10T11:33:01Z</time>
      </trkpt>
      <trkpt lat="48.40673" lon="2.59226">
        <ele>122</ele>
        <time>2023-02-10T11:33:06Z</time>
      </trkpt>
      <trkpt lat="48.40715" lon="2.59186">
        <ele>120</ele>
        <time>2023-02-10T11:33:18Z</time>
      </trkpt>
      <trkpt lat="48.40727" lon="2.59202">
        <ele>119</ele>
        <time>2023-02-10T11:33:22Z</time>
      </trkpt>
      <trkpt lat="48.40724" lon="2.59248">
        <ele>117</ele>
        <time>2023-02-10T11:33:29Z</time>
      </trkpt>
      <trkpt lat="48.40745" lon="2.59279">
        <ele>114</ele>
        <time>2023-02-10T11:33:36Z</time>
      </trkpt>
      <trkpt lat="48.40791" lon="2.59281">
        <ele>108</ele>
        <time>2023-02-10T11:33:47Z</time>
      </trkpt>
      <trkpt lat="48.40821" lon="2.5926">
        <ele>104</ele>
        <time>2023-02-10T11:33:54Z</time>
      </trkpt>
      <trkpt lat="48.40896" lon="2.59223">
        <ele>95</ele>
        <time>2023-02-10T11:34:13Z</time>
      </trkpt>
      <trkpt lat="48.40912" lon="2.59204">
        <ele>92</ele>
        <time>2023-02-10T11:34:17Z</time>
      </trkpt>
      <trkpt lat="48.40989" lon="2.59181">
        <ele>86</ele>
        <time>2023-02-10T11:34:36Z</time>
      </trkpt>
      <trkpt lat="48.4096" lon="2.59572">
        <ele>84</ele>
        <time>2023-02-10T11:35:37Z</time>
      </trkpt>
      <trkpt lat="48.41118" lon="2.59845">
        <ele>84</ele>
        <time>2023-02-10T11:36:33Z</time>
      </trkpt>
      <trkpt lat="48.41387" lon="2.60351">
        <ele>82</ele>
        <time>2023-02-10T11:38:13Z</time>
      </trkpt>
      <trkpt lat="48.41613" lon="2.60762">
        <ele>88</ele>
        <time>2023-02-10T11:39:36Z</time>
      </trkpt>
      <trkpt lat="48.41117" lon="2.60952">
        <ele>94</ele>
        <time>2023-02-10T11:41:36Z</time>
      </trkpt>
      <trkpt lat="48.41084" lon="2.60828">
        <ele>95</ele>
        <time>2023-02-10T11:41:56Z</time>
      </trkpt>
      <trkpt lat="48.41003" lon="2.60789">
        <ele>95</ele>
        <time>2023-02-10T11:42:16Z</time>
      </trkpt>
      <trkpt lat="48.40924" lon="2.60784">
        <ele>102</ele>
        <time>2023-02-10T11:42:35Z</time>
      </trkpt>
      <trkpt lat="48.40838" lon="2.60801">
        <ele>106</ele>
        <time>2023-02-10T11:42:55Z</time>
      </trkpt>
      <trkpt lat="48.40769" lon="2.60824">
        <ele>113</ele>
        <time>2023-02-10T11:43:11Z</time>
      </trkpt>
      <trkpt lat="48.40754" lon="2.61074">
        <ele>116</ele>
        <time>2023-02-10T11:43:50Z</time>
      </trkpt>
      <trkpt lat="48.40739" lon="2.61289">
        <ele>120</ele>
        <time>2023-02-10T11:44:24Z</time>
      </trkpt>
      <trkpt lat="48.407" lon="2.6146">
        <ele>125</ele>
        <time>2023-02-10T11:44:52Z</time>
      </trkpt>
      <trkpt lat="48.40639" lon="2.61967">
        <ele>122</ele>
        <time>2023-02-10T11:46:12Z</time>
      </trkpt>
      <trkpt lat="48.4058" lon="2.62332">
        <ele>127</ele>
        <time>2023-02-10T11:47:10Z</time>
      </trkpt>
      <trkpt lat="48.40546" lon="2.62275">
        <ele>129</ele>
        <time>2023-02-10T11:47:22Z</time>
      </trkpt>
      <trkpt lat="48.40497" lon="2.62287">
        <ele>131</ele>
        <time>2023-02-10T11:47:34Z</time>
      </trkpt>
      <trkpt lat="48.4043" lon="2.61419">
        <ele>136</ele>
        <time>2023-02-10T11:49:49Z</time>
      </trkpt>
      <trkpt lat="48.40312" lon="2.61395">
        <ele>132</ele>
        <time>2023-02-10T11:50:17Z</time>
      </trkpt>
      <trkpt lat="48.4024" lon="2.61364">
        <ele>130</ele>
        <time>2023-02-10T11:50:34Z</time>
      </trkpt>
      <trkpt lat="48.40219" lon="2.6138">
        <ele>129</ele>
        <time>2023-02-10T11:50:40Z</time>
      </trkpt>
      <trkpt lat="48.40146" lon="2.61382">
        <ele>129</ele>
        <time>2023-02-10T11:50:57Z</time>
      </trkpt>
      <trkpt lat="48.40014" lon="2.61444">
        <ele>131</ele>
        <time>2023-02-10T11:51:29Z</time>
      </trkpt>
      <trkpt lat="48.39938" lon="2.61434">
        <ele>133</ele>
        <time>2023-02-10T11:51:47Z</time>
      </trkpt>
      <trkpt lat="48.39737" lon="2.61404">
        <ele>135</ele>
        <time>2023-02-10T11:52:34Z</time>
      </trkpt>
      <trkpt lat="48.39624" lon="2.61821">
        <ele>135</ele>
        <time>2023-02-10T11:53:44Z</time>
      </trkpt>
      <trkpt lat="48.39789" lon="2.61948">
        <ele>136</ele>
        <time>2023-02-10T11:54:27Z</time>
      </trkpt>
      <trkpt lat="48.40042" lon="2.62534">
        <ele>135</ele>
        <time>2023-02-10T11:56:16Z</time>
      </trkpt>
      <trkpt lat="48.40278" lon="2.62906">
        <ele>142</ele>
        <time>2023-02-10T11:57:35Z</time>
      </trkpt>
      <trkpt lat="48.40356" lon="2.62943">
        <ele>140</ele>
        <time>2023-02-10T11:57:54Z</time>
      </trkpt>
      <trkpt lat="48.4045" lon="2.63024">
        <ele>137</ele>
        <time>2023-02-10T11:58:20Z</time>
      </trkpt>
      <trkpt lat="48.40461" lon="2.6318">
        <ele>134</ele>
        <time>2023-02-10T11:58:44Z</time>
      </trkpt>
      <trkpt lat="48.40495" lon="2.63234">
        <ele>135</ele>
        <time>2023-02-10T11:58:56Z</time>
      </trkpt>
      <trkpt lat="48.40417" lon="2.63824">
        <ele>136</ele>
        <time>2023-02-10T12:00:29Z</time>
      </trkpt>
      <trkpt lat="48.40371" lon="2.63982">
        <ele>135</ele>
        <time>2023-02-10T12:00:56Z</time>
      </trkpt>
      <trkpt lat="48.40294" lon="2.64501">
        <ele>122</ele>
        <time>2023-02-10T12:02:18Z</time>
      </trkpt>
      <trkpt lat="48.4017" lon="2.65344">
        <ele>102</ele>
        <time>2023-02-10T12:04:32Z</time>
      </trkpt>
      <trkpt lat="48.40127" lon="2.65782">
        <ele>102</ele>
        <time>2023-02-10T12:05:41Z</time>
      </trkpt>
      <trkpt lat="48.40118" lon="2.65943">
        <ele>100</ele>
        <time>2023-02-10T12:06:06Z</time>
      </trkpt>
      <trkpt lat="48.401" lon="2.66039">
        <ele>97</ele>
        <time>2023-02-10T12:06:21Z</time>
      </trkpt>
      <trkpt lat="48.40378" lon="2.66057">
        <ele>99</ele>
        <time>2023-02-10T12:07:26Z</time>
      </trkpt>
      <trkpt lat="48.40381" lon="2.65605">
        <ele>97</ele>
        <time>2023-02-10T12:08:36Z</time>
      </trkpt>
      <trkpt lat="48.40384" lon="2.65535">
        <ele>98</ele>
        <time>2023-02-10T12:08:47Z</time>
      </trkpt>
      <trkpt lat="48.40399" lon="2.65402">
        <ele>98</ele>
        <time>2023-02-10T12:09:08Z</time>
      </trkpt>
      <trkpt lat="48.40433" lon="2.65098">
        <ele>105</ele>
        <time>2023-02-10T12:09:56Z</time>
      </trkpt>
      <trkpt lat="48.40564" lon="2.64895">
        <ele>114</ele>
        <time>2023-02-10T12:10:40Z</time>
      </trkpt>
      <trkpt lat="48.40616" lon="2.64615">
        <ele>126</ele>
        <time>2023-02-10T12:11:25Z</time>
      </trkpt>
      <trkpt lat="48.40592" lon="2.64475">
        <ele>128</ele>
        <time>2023-02-10T12:11:47Z</time>
      </trkpt>
      <trkpt lat="48.40625" lon="2.6441">
        <ele>131</ele>
        <time>2023-02-10T12:12:00Z</time>
      </trkpt>
      <trkpt lat="48.40633" lon="2.64267">
        <ele>135</ele>
        <time>2023-02-10T12:12:22Z</time>
      </trkpt>
      <trkpt lat="48.40693" lon="2.64115">
        <ele>136</ele>
        <time>2023-02-10T12:12:50Z</time>
      </trkpt>
      <trkpt lat="48.40743" lon="2.64125">
        <ele>136</ele>
        <time>2023-02-10T12:13:01Z</time>
      </trkpt>
      <trkpt lat="48.40799" lon="2.64275">
        <ele>137</ele>
        <time>2023-02-10T12:13:28Z</time>
      </trkpt>
      <trkpt lat="48.40886" lon="2.64765">
        <ele>137</ele>
        <time>2023-02-10T12:14:47Z</time>
      </trkpt>
      <trkpt lat="48.41162" lon="2.65612">
        <ele>135</ele>
        <time>2023-02-10T12:17:13Z</time>
      </trkpt>
      <trkpt lat="48.40809" lon="2.65465">
        <ele>134</ele>
        <time>2023-02-10T12:18:38Z</time>
      </trkpt>
      <trkpt lat="48.40865" lon="2.65954">
        <ele>138</ele>
        <time>2023-02-10T12:19:55Z</time>
      </trkpt>
      <trkpt lat="48.4078" lon="2.6616">
        <ele>131</ele>
        <time>2023-02-10T12:20:33Z</time>
      </trkpt>
      <trkpt lat="48.40772" lon="2.66189">
        <ele>130</ele>
        <time>2023-02-10T12:20:38Z</time>
      </trkpt>
      <trkpt lat="48.40777" lon="2.66416">
        <ele>134</ele>
        <time>2023-02-10T12:21:13Z</time>
      </trkpt>
      <trkpt lat="48.40801" lon="2.66676">
        <ele>133</ele>
        <time>2023-02-10T12:21:54Z</time>
      </trkpt>
      <trkpt lat="48.40824" lon="2.66866">
        <ele>133</ele>
        <time>2023-02-10T12:22:24Z</time>
      </trkpt>
      <trkpt lat="48.40894" lon="2.66824">
        <ele>134</ele>
        <time>2023-02-10T12:22:41Z</time>
      </trkpt>
      <trkpt lat="48.40969" lon="2.66828">
        <ele>130</ele>
        <time>2023-02-10T12:22:59Z</time>
      </trkpt>
      <trkpt lat="48.40985" lon="2.66971">
        <ele>121</ele>
        <time>2023-02-10T12:23:21Z</time>
      </trkpt>
      <trkpt lat="48.41031" lon="2.67355">
        <ele>106</ele>
        <time>2023-02-10T12:24:22Z</time>
      </trkpt>
      <trkpt lat="48.40836" lon="2.679">
        <ele>94</ele>
        <time>2023-02-10T12:25:58Z</time>
      </trkpt>
      <trkpt lat="48.40702" lon="2.67472">
        <ele>96</ele>
        <time>2023-02-10T12:27:11Z</time>
      </trkpt>
      <trkpt lat="48.40559" lon="2.67662">
        <ele>85</ele>
        <time>2023-02-10T12:27:56Z</time>
      </trkpt>
      <trkpt lat="48.40549" lon="2.67683">
        <ele>85</ele>
        <time>2023-02-10T12:28:00Z</time>
      </trkpt>
      <trkpt lat="48.40462" lon="2.6829">
        <ele>83</ele>
        <time>2023-02-10T12:29:36Z</time>
      </trkpt>
    </trkseg>
  </trk>
</gpx>